sensor_id;sensor_type;location;lat;lon;timestamp;pressure;altitude;pressure_sealevel;temperature;humidity
2036;BME280;23642;42.658;23.350;2023-05-19T00:04:17;48016.13;;;-146.31;100.00
2036;BME280;23642;42.658;23.350;2023-05-19T00:10:58;48040.84;;;-146.31;99.61
2036;BME280;23642;42.658;23.350;2023-05-19T00:13:45;48061.44;;;-146.31;99.82
2036;BME280;23642;42.658;23.350;2023-05-19T00:16:17;48012.00;;;-146.31;99.99
2036;BME280;23642;42.658;23.350;2023-05-19T00:22:15;48108.84;;;-146.31;99.98
2036;BME280;23642;42.658;23.350;2023-05-19T00:24:59;48077.94;;;-146.31;99.55
2036;BME280;23642;42.658;23.350;2023-05-19T00:27:31;48082.06;;;-146.31;99.76
2036;BME280;23642;42.658;23.350;2023-05-19T00:30:07;48088.25;;;-146.31;99.38
2036;BME280;23642;42.658;23.350;2023-05-19T00:32:59;48133.59;;;-146.31;99.14
2036;BME280;23642;42.658;23.350;2023-05-19T00:35:30;48117.09;;;-146.31;99.17
2036;BME280;23642;42.658;23.350;2023-05-19T00:37:59;48127.41;;;-146.31;99.24
2036;BME280;23642;42.658;23.350;2023-05-19T00:40:30;48125.34;;;-146.31;99.16
2036;BME280;23642;42.658;23.350;2023-05-19T00:43:07;48137.72;;;-146.31;99.63
2036;BME280;23642;42.658;23.350;2023-05-19T00:45:37;48143.91;;;-146.31;99.44
2036;BME280;23642;42.658;23.350;2023-05-19T00:48:05;48152.13;;;-146.31;99.68
2036;BME280;23642;42.658;23.350;2023-05-19T00:50:44;48135.66;;;-146.31;99.60
2036;BME280;23642;42.658;23.350;2023-05-19T00:53:22;48143.91;;;-146.31;99.40
2036;BME280;23642;42.658;23.350;2023-05-19T00:56:14;48152.13;;;-146.31;99.56
2036;BME280;23642;42.658;23.350;2023-05-19T00:58:44;48145.94;;;-146.31;99.91
2036;BME280;23642;42.658;23.350;2023-05-19T01:01:29;48112.97;;;-146.31;100.00
2036;BME280;23642;42.658;23.350;2023-05-19T01:04:03;48119.16;;;-146.31;100.00
2036;BME280;23642;42.658;23.350;2023-05-19T01:06:38;48104.72;;;-146.31;100.00
2036;BME280;23642;42.658;23.350;2023-05-19T01:09:06;48082.06;;;-146.31;100.00
2036;BME280;23642;42.658;23.350;2023-05-19T01:11:42;48030.53;;;-146.31;100.00
2036;BME280;23642;42.658;23.350;2023-05-19T01:14:16;47985.19;;;-146.31;100.00
2036;BME280;23642;42.658;23.350;2023-05-19T01:16:51;47941.91;;;-146.31;100.00
2036;BME280;23642;42.658;23.350;2023-05-19T01:19:53;47906.88;;;-146.31;100.00
2036;BME280;23642;42.658;23.350;2023-05-19T01:22:44;47941.91;;;-146.31;100.00
2036;BME280;23642;42.658;23.350;2023-05-19T01:26:10;47884.22;;;-146.31;100.00
2036;BME280;23642;42.658;23.350;2023-05-19T01:29:05;47820.34;;;-146.31;100.00
2036;BME280;23642;42.658;23.350;2023-05-19T01:31:35;47849.19;;;-146.31;100.00
2036;BME280;23642;42.658;23.350;2023-05-19T01:34:14;47818.28;;;-146.31;100.00
2036;BME280;23642;42.658;23.350;2023-05-19T01:36:46;47779.13;;;-146.31;100.00
2036;BME280;23642;42.658;23.350;2023-05-19T01:39:15;47814.16;;;-146.31;100.00
2036;BME280;23642;42.658;23.350;2023-05-19T01:41:43;47789.41;;;-146.31;100.00
2036;BME280;23642;42.658;23.350;2023-05-19T01:44:14;47752.31;;;-146.31;100.00
2036;BME280;23642;42.658;23.350;2023-05-19T01:46:49;47739.97;;;-146.31;100.00
2036;BME280;23642;42.658;23.350;2023-05-19T01:49:22;47636.94;;;-146.31;100.00
2036;BME280;23642;42.658;23.350;2023-05-19T01:51:56;47603.97;;;-146.31;100.00
2036;BME280;23642;42.658;23.350;2023-05-19T01:54:27;47560.69;;;-146.31;100.00
2036;BME280;23642;42.658;23.350;2023-05-19T01:57:18;47447.34;;;-146.31;100.00
2036;BME280;23642;42.658;23.350;2023-05-19T01:59:58;47434.97;;;-146.31;100.00
2036;BME280;23642;42.658;23.350;2023-05-19T02:02:47;47371.09;;;-146.31;100.00
2036;BME280;23642;42.658;23.350;2023-05-19T02:05:39;47397.91;;;-146.31;100.00
2036;BME280;23642;42.658;23.350;2023-05-19T02:11:11;47490.63;;;-146.31;100.00
2036;BME280;23642;42.658;23.350;2023-05-19T02:13:43;47467.97;;;-146.31;100.00
2036;BME280;23642;42.658;23.350;2023-05-19T02:16:12;47434.97;;;-146.31;100.00
2036;BME280;23642;42.658;23.350;2023-05-19T02:18:44;47362.88;;;-146.31;100.00
2036;BME280;23642;42.658;23.350;2023-05-19T02:21:12;47373.16;;;-146.31;100.00
2036;BME280;23642;42.658;23.350;2023-05-19T02:23:39;47364.94;;;-146.31;100.00
2036;BME280;23642;42.658;23.350;2023-05-19T02:28:50;47416.44;;;-146.31;100.00
2036;BME280;23642;42.658;23.350;2023-05-19T02:31:20;47416.44;;;-146.31;100.00
2036;BME280;23642;42.658;23.350;2023-05-19T02:33:49;47389.66;;;-146.31;100.00
2036;BME280;23642;42.658;23.350;2023-05-19T02:36:22;47426.75;;;-146.31;100.00
2036;BME280;23642;42.658;23.350;2023-05-19T02:38:54;47422.63;;;-146.31;100.00
2036;BME280;23642;42.658;23.350;2023-05-19T02:41:22;47406.13;;;-146.31;100.00
2036;BME280;23642;42.658;23.350;2023-05-19T02:43:49;47451.47;;;-146.31;100.00
2036;BME280;23642;42.658;23.350;2023-05-19T02:46:16;47490.63;;;-146.31;100.00
2036;BME280;23642;42.658;23.350;2023-05-19T02:48:45;47441.16;;;-146.31;100.00
2036;BME280;23642;42.658;23.350;2023-05-19T02:51:13;47420.56;;;-146.31;100.00
2036;BME280;23642;42.658;23.350;2023-05-19T02:53:49;47472.06;;;-146.31;100.00
2036;BME280;23642;42.658;23.350;2023-05-19T02:56:22;47449.41;;;-146.31;100.00
2036;BME280;23642;42.658;23.350;2023-05-19T02:58:50;47476.19;;;-146.31;100.00
2036;BME280;23642;42.658;23.350;2023-05-19T03:01:30;47486.50;;;-146.31;100.00
2036;BME280;23642;42.658;23.350;2023-05-19T03:04:02;47513.28;;;-146.31;100.00
2036;BME280;23642;42.658;23.350;2023-05-19T03:06:41;47486.50;;;-146.31;100.00
2036;BME280;23642;42.658;23.350;2023-05-19T03:09:13;47492.69;;;-146.31;100.00
2036;BME280;23642;42.658;23.350;2023-05-19T03:11:45;47496.81;;;-146.31;100.00
2036;BME280;23642;42.658;23.350;2023-05-19T03:14:18;47496.81;;;-146.31;100.00
2036;BME280;23642;42.658;23.350;2023-05-19T03:16:55;47505.03;;;-146.31;100.00
2036;BME280;23642;42.658;23.350;2023-05-19T03:19:24;47430.88;;;-146.31;100.00
2036;BME280;23642;42.658;23.350;2023-05-19T03:21:55;47439.09;;;-146.31;100.00
2036;BME280;23642;42.658;23.350;2023-05-19T03:24:22;47443.22;;;-146.31;100.00
2036;BME280;23642;42.658;23.350;2023-05-19T03:27:07;47412.31;;;-146.31;100.00
2036;BME280;23642;42.658;23.350;2023-05-19T03:29:43;47430.88;;;-146.31;100.00
2036;BME280;23642;42.658;23.350;2023-05-19T03:32:10;47472.06;;;-146.31;100.00
2036;BME280;23642;42.658;23.350;2023-05-19T03:34:37;47451.47;;;-146.31;100.00
2036;BME280;23642;42.658;23.350;2023-05-19T03:37:08;47482.38;;;-146.31;100.00
2036;BME280;23642;42.658;23.350;2023-05-19T03:39:37;47461.78;;;-146.31;100.00
2036;BME280;23642;42.658;23.350;2023-05-19T03:42:05;47515.34;;;-146.31;100.00
2036;BME280;23642;42.658;23.350;2023-05-19T03:44:32;47502.97;;;-146.31;100.00
2036;BME280;23642;42.658;23.350;2023-05-19T03:46:59;47519.47;;;-146.31;100.00
2036;BME280;23642;42.658;23.350;2023-05-19T03:49:32;47587.47;;;-146.31;100.00
2036;BME280;23642;42.658;23.350;2023-05-19T03:52:09;47591.59;;;-146.31;100.00
2036;BME280;23642;42.658;23.350;2023-05-19T03:54:41;47616.31;;;-146.31;100.00
2036;BME280;23642;42.658;23.350;2023-05-19T03:57:19;47674.03;;;-146.31;100.00
2036;BME280;23642;42.658;23.350;2023-05-19T03:59:46;47676.06;;;-146.31;100.00
2036;BME280;23642;42.658;23.350;2023-05-19T04:02:20;47756.44;;;-146.31;100.00
2036;BME280;23642;42.658;23.350;2023-05-19T04:04:48;47799.72;;;-146.31;100.00
2036;BME280;23642;42.658;23.350;2023-05-19T04:07:17;47875.97;;;-146.31;100.00
2036;BME280;23642;42.658;23.350;2023-05-19T04:09:44;47950.16;;;-146.31;99.15
2036;BME280;23642;42.658;23.350;2023-05-19T04:12:13;48040.84;;;-146.31;98.89
2036;BME280;23642;42.658;23.350;2023-05-19T04:14:40;48075.88;;;-146.31;98.26
2036;BME280;23642;42.658;23.350;2023-05-19T04:17:11;48088.25;;;-146.31;98.21
2036;BME280;23642;42.658;23.350;2023-05-19T04:19:48;48137.72;;;-146.31;97.57
2036;BME280;23642;42.658;23.350;2023-05-19T04:22:16;48178.94;;;-146.31;96.84
2036;BME280;23642;42.658;23.350;2023-05-19T04:24:43;48228.41;;;-146.31;96.69
2036;BME280;23642;42.658;23.350;2023-05-19T04:27:13;48296.41;;;-146.31;96.41
2036;BME280;23642;42.658;23.350;2023-05-19T04:29:48;48277.84;;;-146.31;96.20
2036;BME280;23642;42.658;23.350;2023-05-19T04:32:36;48269.63;;;-146.31;96.24
2036;BME280;23642;42.658;23.350;2023-05-19T04:35:10;48302.59;;;-146.31;96.09
2036;BME280;23642;42.658;23.350;2023-05-19T04:37:45;48350.00;;;-146.31;95.75
2036;BME280;23642;42.658;23.350;2023-05-19T04:40:15;48352.06;;;-146.31;95.59
2036;BME280;23642;42.658;23.350;2023-05-19T04:42:57;48356.19;;;-146.31;94.89
2036;BME280;23642;42.658;23.350;2023-05-19T04:45:34;48399.47;;;-146.31;95.51
2036;BME280;23642;42.658;23.350;2023-05-19T04:48:12;48385.03;;;-146.31;96.01
2036;BME280;23642;42.658;23.350;2023-05-19T04:50:47;48411.84;;;-146.31;95.92
2036;BME280;23642;42.658;23.350;2023-05-19T04:53:20;48448.94;;;-146.31;96.04
2036;BME280;23642;42.658;23.350;2023-05-19T04:55:56;48430.38;;;-146.31;95.21
2036;BME280;23642;42.658;23.350;2023-05-19T04:58:25;48444.81;;;-146.31;94.50
2036;BME280;23642;42.658;23.350;2023-05-19T05:01:04;48519.00;;;-146.31;94.58
2036;BME280;23642;42.658;23.350;2023-05-19T05:03:36;48537.56;;;-146.31;94.59
2036;BME280;23642;42.658;23.350;2023-05-19T05:06:09;48556.13;;;-146.31;94.62
2036;BME280;23642;42.658;23.350;2023-05-19T05:08:56;48539.63;;;-146.31;93.19
2036;BME280;23642;42.658;23.350;2023-05-19T05:11:32;48613.81;;;-146.31;92.23
2036;BME280;23642;42.658;23.350;2023-05-19T05:14:25;48580.84;;;-146.31;92.44
2036;BME280;23642;42.658;23.350;2023-05-19T05:20:41;48648.88;;;-146.31;92.41
2036;BME280;23642;42.658;23.350;2023-05-19T05:23:36;48679.78;;;-146.31;91.49
2036;BME280;23642;42.658;23.350;2023-05-19T05:26:20;48708.66;;;-146.31;92.17
2036;BME280;23642;42.658;23.350;2023-05-19T05:29:16;48700.41;;;-146.31;93.44
2036;BME280;23642;42.658;23.350;2023-05-19T05:32:24;48708.66;;;-146.31;93.68
2036;BME280;23642;42.658;23.350;2023-05-19T05:35:19;48688.03;;;-146.31;93.15
2036;BME280;23642;42.658;23.350;2023-05-19T05:38:01;48739.56;;;-146.31;91.56
2036;BME280;23642;42.658;23.350;2023-05-19T05:40:32;48774.63;;;-146.31;91.09
2036;BME280;23642;42.658;23.350;2023-05-19T05:43:07;48739.56;;;-146.31;90.76
2036;BME280;23642;42.658;23.350;2023-05-19T05:45:46;48768.44;;;-146.31;89.78
2036;BME280;23642;42.658;23.350;2023-05-19T05:48:15;48840.56;;;-146.31;90.07
2036;BME280;23642;42.658;23.350;2023-05-19T05:51:01;48832.34;;;-146.31;89.65
2036;BME280;23642;42.658;23.350;2023-05-19T06:06:50;48986.94;;;-146.31;86.09
2036;BME280;23642;42.658;23.350;2023-05-19T06:09:52;49005.50;;;-146.31;87.05
2036;BME280;23642;42.658;23.350;2023-05-19T06:12:57;49028.16;;;-146.31;85.33
2036;BME280;23642;42.658;23.350;2023-05-19T06:15:40;49042.59;;;-146.31;85.44
2036;BME280;23642;42.658;23.350;2023-05-19T06:18:15;49178.66;;;-146.31;84.52
2036;BME280;23642;42.658;23.350;2023-05-19T06:21:10;49156.00;;;-146.31;83.52
2036;BME280;23642;42.658;23.350;2023-05-19T06:23:59;49228.16;;;-146.31;81.92
2036;BME280;23642;42.658;23.350;2023-05-19T06:27:00;49221.97;;;-146.31;82.59
2036;BME280;23642;42.658;23.350;2023-05-19T06:30:07;49285.88;;;-146.31;81.96
2036;BME280;23642;42.658;23.350;2023-05-19T06:34:23;49364.22;;;-146.31;80.23
2036;BME280;23642;42.658;23.350;2023-05-19T06:40:29;49432.25;;;-146.31;80.43
2036;BME280;23642;42.658;23.350;2023-05-19T07:10:39;49824.03;;;-146.31;71.85
2036;BME280;23642;42.658;23.350;2023-05-19T07:14:16;49873.50;;;-146.31;72.42
2036;BME280;23642;42.658;23.350;2023-05-19T07:17:11;49925.06;;;-146.31;72.64
2036;BME280;23642;42.658;23.350;2023-05-19T07:37:32;50114.78;;;-146.31;68.39
2036;BME280;23642;42.658;23.350;2023-05-19T07:40:31;50139.53;;;-146.31;68.05
2036;BME280;23642;42.658;23.350;2023-05-19T07:43:04;50263.25;;;-146.31;65.95
2036;BME280;23642;42.658;23.350;2023-05-19T07:45:40;50275.63;;;-146.31;59.71
2036;BME280;23642;42.658;23.350;2023-05-19T07:48:13;50110.66;;;-146.31;60.00
2036;BME280;23642;42.658;23.350;2023-05-19T07:50:53;50321.00;;;-146.31;59.37
2036;BME280;23642;42.658;23.350;2023-05-19T07:57:06;50492.19;;;-146.31;57.83
2036;BME280;23642;42.658;23.350;2023-05-19T07:59:52;50508.69;;;-146.31;57.69
2036;BME280;23642;42.658;23.350;2023-05-19T08:02:41;50401.44;;;-146.31;56.84
2036;BME280;23642;42.658;23.350;2023-05-19T08:05:36;50527.25;;;-146.31;56.16
2036;BME280;23642;42.658;23.350;2023-05-19T08:08:11;50688.13;;;-146.31;57.58
2036;BME280;23642;42.658;23.350;2023-05-19T08:14:57;50783.00;;;-146.31;58.91
2036;BME280;23642;42.658;23.350;2023-05-19T08:17:07;50723.19;;;-146.31;58.37
2036;BME280;23642;42.658;23.350;2023-05-19T08:19:59;50679.88;;;-146.31;59.35
2036;BME280;23642;42.658;23.350;2023-05-19T08:36:42;50906.75;;;-146.31;56.60
2036;BME280;23642;42.658;23.350;2023-05-19T08:40:16;50861.38;;;-146.31;56.71
2036;BME280;23642;42.658;23.350;2023-05-19T08:44:40;50836.63;;;-146.31;56.90
2036;BME280;23642;42.658;23.350;2023-05-19T08:45:59;50688.13;;;-146.31;56.87
2036;BME280;23642;42.658;23.350;2023-05-19T08:48:41;50840.75;;;-146.31;56.63
2036;BME280;23642;42.658;23.350;2023-05-19T08:58:26;50991.31;;;-146.31;59.00
2036;BME280;23642;42.658;23.350;2023-05-19T09:02:25;51069.69;;;-146.31;58.83
2036;BME280;23642;42.658;23.350;2023-05-19T09:04:31;51007.81;;;-146.31;56.69
2036;BME280;23642;42.658;23.350;2023-05-19T09:10:47;50985.13;;;-146.31;57.36
2036;BME280;23642;42.658;23.350;2023-05-19T09:14:02;50844.88;;;-146.31;58.00
2036;BME280;23642;42.658;23.350;2023-05-19T09:20:42;50857.25;;;-146.31;56.64
2036;BME280;23642;42.658;23.350;2023-05-19T09:30:35;51020.19;;;-146.31;55.27
2036;BME280;23642;42.658;23.350;2023-05-19T09:47:28;51123.34;;;-146.31;54.85
2036;BME280;23642;42.658;23.350;2023-05-19T09:50:52;51117.16;;;-146.31;55.64
2036;BME280;23642;42.658;23.350;2023-05-19T11:42:21;52794.63;;;-146.31;48.81
2036;BME280;23642;42.658;23.350;2023-05-19T11:48:01;52778.13;;;-146.31;62.99
2036;BME280;23642;42.658;23.350;2023-05-19T11:51:13;52049.66;;;-146.31;72.80
2036;BME280;23642;42.658;23.350;2023-05-19T11:58:14;51509.09;;;-146.31;83.07
2036;BME280;23642;42.658;23.350;2023-05-19T12:02:28;51661.78;;;-146.31;77.90
2036;BME280;23642;42.658;23.350;2023-05-19T12:07:43;51546.25;;;-146.31;78.78
2036;BME280;23642;42.658;23.350;2023-05-19T12:11:29;51422.47;;;-146.31;93.31
2036;BME280;23642;42.658;23.350;2023-05-19T12:14:04;51265.69;;;-146.31;95.44
2036;BME280;23642;42.658;23.350;2023-05-19T12:17:03;51135.72;;;-146.31;96.34
2036;BME280;23642;42.658;23.350;2023-05-19T12:20:03;51193.47;;;-146.31;95.90
2036;BME280;23642;42.658;23.350;2023-05-19T15:07:28;52751.28;;;-146.31;35.99
2036;BME280;23642;42.658;23.350;2023-05-19T16:10:49;54431.63;;;-146.31;47.12
2036;BME280;23642;42.658;23.350;2023-05-19T16:13:32;54417.19;;;-146.31;47.66
2036;BME280;23642;42.658;23.350;2023-05-19T16:18:58;54479.13;;;-146.31;48.95
2036;BME280;23642;42.658;23.350;2023-05-19T16:21:25;54477.06;;;-146.31;50.33
2036;BME280;23642;42.658;23.350;2023-05-19T16:24:15;54441.97;;;-146.31;50.44
2036;BME280;23642;42.658;23.350;2023-05-19T16:33:37;54495.66;;;-146.31;49.39
2036;BME280;23642;42.658;23.350;2023-05-19T16:36:28;54400.66;;;-146.31;51.46
2036;BME280;23642;42.658;23.350;2023-05-19T16:39:32;54421.31;;;-146.31;51.18
2036;BME280;23642;42.658;23.350;2023-05-19T16:45:34;54388.28;;;-146.31;51.41
2036;BME280;23642;42.658;23.350;2023-05-19T16:51:59;54411.00;;;-146.31;53.06
2036;BME280;23642;42.658;23.350;2023-05-19T17:00:50;54456.41;;;-146.31;55.05
2036;BME280;23642;42.658;23.350;2023-05-19T17:03:52;54464.69;;;-146.31;54.38
2036;BME280;23642;42.658;23.350;2023-05-19T17:06:56;54493.59;;;-146.31;54.59
2036;BME280;23642;42.658;23.350;2023-05-19T17:09:45;54481.19;;;-146.31;54.36
2036;BME280;23642;42.658;23.350;2023-05-19T17:16:00;54415.13;;;-146.31;54.64
2036;BME280;23642;42.658;23.350;2023-05-19T17:19:12;54386.22;;;-146.31;56.50
2036;BME280;23642;42.658;23.350;2023-05-19T17:22:03;54377.94;;;-146.31;56.59
2036;BME280;23642;42.658;23.350;2023-05-19T17:25:19;54361.44;;;-146.31;56.93
2036;BME280;23642;42.658;23.350;2023-05-19T17:28:08;54377.94;;;-146.31;60.21
2036;BME280;23642;42.658;23.350;2023-05-19T17:31:21;54367.63;;;-146.31;61.18
2036;BME280;23642;42.658;23.350;2023-05-19T17:37:34;54357.31;;;-146.31;59.63
2036;BME280;23642;42.658;23.350;2023-05-19T17:47:11;54415.13;;;-146.31;61.46
2036;BME280;23642;42.658;23.350;2023-05-19T17:53:08;54332.53;;;-146.31;64.21
2036;BME280;23642;42.658;23.350;2023-05-19T17:56:09;54303.63;;;-146.31;65.83
2036;BME280;23642;42.658;23.350;2023-05-19T17:59:42;54194.19;;;-146.31;68.27
2036;BME280;23642;42.658;23.350;2023-05-19T18:02:54;53791.59;;;-146.31;71.50
2036;BME280;23642;42.658;23.350;2023-05-19T18:12:23;53484.00;;;-146.31;73.69
2036;BME280;23642;42.658;23.350;2023-05-19T18:15:53;53488.13;;;-146.31;74.17
2036;BME280;23642;42.658;23.350;2023-05-19T18:18:42;53461.31;;;-146.31;75.30
2036;BME280;23642;42.658;23.350;2023-05-19T18:21:25;53440.66;;;-146.31;76.00
2036;BME280;23642;42.658;23.350;2023-05-19T18:30:31;53442.72;;;-146.31;73.71
2036;BME280;23642;42.658;23.350;2023-05-19T18:33:25;53432.41;;;-146.31;74.75
2036;BME280;23642;42.658;23.350;2023-05-19T18:53:50;53399.38;;;-146.31;78.25
2036;BME280;23642;42.658;23.350;2023-05-19T19:06:52;53234.25;;;-146.31;83.56
2036;BME280;23642;42.658;23.350;2023-05-19T19:16:45;53192.97;;;-146.31;86.23
2036;BME280;23642;42.658;23.350;2023-05-19T20:19:42;53112.47;;;-146.31;80.10
2036;BME280;23642;42.658;23.350;2023-05-19T20:26:18;53091.81;;;-146.31;82.20
2036;BME280;23642;42.658;23.350;2023-05-19T20:45:24;53077.38;;;-146.31;84.14
2036;BME280;23642;42.658;23.350;2023-05-19T20:49:32;53054.69;;;-146.31;88.92
2036;BME280;23642;42.658;23.350;2023-05-19T20:56:12;52994.81;;;-146.31;94.89
2036;BME280;23642;42.658;23.350;2023-05-19T20:59:51;52858.59;;;-146.31;96.41
2036;BME280;23642;42.658;23.350;2023-05-19T21:02:49;52815.25;;;-146.31;95.78
2036;BME280;23642;42.658;23.350;2023-05-19T21:05:30;52802.88;;;-146.31;96.59
2036;BME280;23642;42.658;23.350;2023-05-19T21:08:16;52734.78;;;-146.31;97.08
2036;BME280;23642;42.658;23.350;2023-05-19T21:10:49;52689.38;;;-146.31;97.70
2036;BME280;23642;42.658;23.350;2023-05-19T21:13:28;52627.47;;;-146.31;98.69
2036;BME280;23642;42.658;23.350;2023-05-19T21:16:04;52615.06;;;-146.31;98.51
2036;BME280;23642;42.658;23.350;2023-05-19T21:18:33;52546.97;;;-146.31;99.24
2036;BME280;23642;42.658;23.350;2023-05-19T21:21:03;52511.91;;;-146.31;99.76
2036;BME280;23642;42.658;23.350;2023-05-19T21:23:30;52456.19;;;-146.31;100.00
2036;BME280;23642;42.658;23.350;2023-05-19T21:26:06;52408.72;;;-146.31;100.00
2036;BME280;23642;42.658;23.350;2023-05-19T21:28:53;52400.47;;;-146.31;100.00
2036;BME280;23642;42.658;23.350;2023-05-19T21:31:32;52307.59;;;-146.31;100.00
2036;BME280;23642;42.658;23.350;2023-05-19T21:34:01;52280.78;;;-146.31;99.11
2036;BME280;23642;42.658;23.350;2023-05-19T21:36:38;52355.06;;;-146.31;97.66
2036;BME280;23642;42.658;23.350;2023-05-19T21:39:15;52404.59;;;-146.31;98.42
2036;BME280;23642;42.658;23.350;2023-05-19T21:41:58;52324.09;;;-146.31;99.60
2036;BME280;23642;42.658;23.350;2023-05-19T21:44:45;52330.28;;;-146.31;99.41
2036;BME280;23642;42.658;23.350;2023-05-19T21:47:12;52301.41;;;-146.31;99.71
2036;BME280;23642;42.658;23.350;2023-05-19T21:49:46;52270.44;;;-146.31;99.79
2036;BME280;23642;42.658;23.350;2023-05-19T21:52:13;52227.13;;;-146.31;100.00
2036;BME280;23642;42.658;23.350;2023-05-19T21:55:17;52097.13;;;-146.31;100.00
2036;BME280;23642;42.658;23.350;2023-05-19T21:57:49;52008.41;;;-146.31;100.00
2036;BME280;23642;42.658;23.350;2023-05-19T22:03:58;51936.19;;;-146.31;100.00
2036;BME280;23642;42.658;23.350;2023-05-19T22:10:15;51826.81;;;-146.31;100.00
2036;BME280;23642;42.658;23.350;2023-05-19T22:12:54;51787.63;;;-146.31;100.00
2036;BME280;23642;42.658;23.350;2023-05-19T22:15:40;51775.25;;;-146.31;100.00
2036;BME280;23642;42.658;23.350;2023-05-19T22:18:09;51746.38;;;-146.31;100.00
2036;BME280;23642;42.658;23.350;2023-05-19T22:20:49;51665.91;;;-146.31;100.00
2036;BME280;23642;42.658;23.350;2023-05-19T22:23:23;51610.19;;;-146.31;100.00
2036;BME280;23642;42.658;23.350;2023-05-19T22:26:10;51571.00;;;-146.31;100.00
2036;BME280;23642;42.658;23.350;2023-05-19T22:28:46;51480.22;;;-146.31;100.00
2036;BME280;23642;42.658;23.350;2023-05-19T22:31:22;51381.19;;;-146.31;100.00
2036;BME280;23642;42.658;23.350;2023-05-19T22:33:55;51319.31;;;-146.31;100.00
2036;BME280;23642;42.658;23.350;2023-05-19T22:36:32;51346.13;;;-146.31;100.00
2036;BME280;23642;42.658;23.350;2023-05-19T22:39:03;51296.63;;;-146.31;100.00
2036;BME280;23642;42.658;23.350;2023-05-19T22:41:34;51251.22;;;-146.31;100.00
2036;BME280;23642;42.658;23.350;2023-05-19T22:44:14;51224.41;;;-146.31;100.00
2036;BME280;23642;42.658;23.350;2023-05-19T22:47:00;51123.34;;;-146.31;100.00
2036;BME280;23642;42.658;23.350;2023-05-19T22:49:41;51040.81;;;-146.31;100.00
2036;BME280;23642;42.658;23.350;2023-05-19T22:52:16;50869.63;;;-146.31;100.00
2036;BME280;23642;42.658;23.350;2023-05-19T22:54:44;50704.63;;;-146.31;100.00
2036;BME280;23642;42.658;23.350;2023-05-19T23:00:42;50314.81;;;-146.31;100.00
2036;BME280;23642;42.658;23.350;2023-05-19T23:03:14;50156.03;;;-146.31;100.00
2036;BME280;23642;42.658;23.350;2023-05-19T23:06:00;50061.16;;;-146.31;100.00
2036;BME280;23642;42.658;23.350;2023-05-19T23:08:29;49925.06;;;-146.31;100.00
2036;BME280;23642;42.658;23.350;2023-05-19T23:11:23;49842.56;;;-146.31;100.00
2036;BME280;23642;42.658;23.350;2023-05-19T23:14:09;49675.56;;;-146.31;100.00
2036;BME280;23642;42.658;23.350;2023-05-19T23:16:48;49675.56;;;-146.31;100.00
2036;BME280;23642;42.658;23.350;2023-05-19T23:19:24;49605.44;;;-146.31;100.00
2036;BME280;23642;42.658;23.350;2023-05-19T23:21:56;49502.34;;;-146.31;100.00
2036;BME280;23642;42.658;23.350;2023-05-19T23:24:35;49438.44;;;-146.31;100.00
2036;BME280;23642;42.658;23.350;2023-05-19T23:30:03;49182.78;;;-146.31;100.00
2036;BME280;23642;42.658;23.350;2023-05-19T23:32:33;49108.56;;;-146.31;100.00
2036;BME280;23642;42.658;23.350;2023-05-19T23:35:21;49028.16;;;-146.31;100.00
2036;BME280;23642;42.658;23.350;2023-05-19T23:37:51;48991.06;;;-146.31;100.00
2036;BME280;23642;42.658;23.350;2023-05-19T23:40:20;48910.66;;;-146.31;100.00
2036;BME280;23642;42.658;23.350;2023-05-19T23:43:01;48840.56;;;-146.31;100.00
2036;BME280;23642;42.658;23.350;2023-05-19T23:45:29;48754.00;;;-146.31;100.00
2036;BME280;23642;42.658;23.350;2023-05-19T23:50:46;48576.72;;;-146.31;100.00
2036;BME280;23642;42.658;23.350;2023-05-19T23:53:13;48488.09;;;-146.31;100.00
2036;BME280;23642;42.658;23.350;2023-05-19T23:55:46;48461.31;;;-146.31;100.00
2036;BME280;23642;42.658;23.350;2023-05-19T23:58:41;48424.19;;;-146.31;100.00
